Impacts TAF Board
For situational awareness. Not to be used for flight planning purposes.
IDs:

KPHX - Phoenix/Sky Harbor, AZ, US

Issued at 1722 UTC 01 Mar 2021
Updated at 1722 UTC 01 Mar 2021
Potential Impact None Slight Moderate High
Time1651Z 01/18Z 01/19Z 01/20Z 01/21Z 01/22Z 01/23Z 02/00Z 02/01Z 02/02Z 02/03Z 02/04Z 02/05Z 02/06Z>>
Type OBS PRVL PRVL PRVL PRVL PRVL PRVL PRVL PRVL PRVL PRVL PRVL PRVL PRVL
VIS 10 >6 >6 >6 >6 >6 >6 >6 >6 >6 >6 >6 >6 >6
CIG -- -- -- -- -- -- -- -- -- -- -- -- -- --
Cover CLR SKC SKC SKC SKC SKC SKC SKC SKC SKC SKC SKC SKC SKC
FltCat VFR VFR VFR VFR VFR VFR VFR VFR VFR VFR VFR VFR VFR VFR
WX -- -- -- -- -- -- -- -- -- -- -- -- -- --
WDir VRB 90 90 90 90 90 90 VRB VRB VRB VRB VRB VRB 90
WSpd 0 8 8 8 8 8 8 4 4 4 4 4 4 8
WGst -- -- -- -- -- -- -- -- -- -- -- -- -- --
Raw TAF
KPHX 011722Z 0118/0224 09008KT P6SM SKC
  FM020000 VRB04KT P6SM SKC
  FM020600 09008KT P6SM SKC WS020/12030KT
  FM021600 09012G22KT P6SM SKC
  FM022000 10008KT P6SM SKC


Raw METAR
KPHX 011651Z 00000KT 10SM CLR 13/M14 A3031 RMK AO2 SLP259 T01281144
KPHX 011551Z 00000KT 10SM CLR 10/M14 A3031 RMK AO2 SLP260 T01001144
KPHX 011451Z 00000KT 10SM CLR 07/M15 A3029 RMK AO2 SLP255 T00721150 53018 $

METAR Board
Radar Display
Forecast Discussion
For situational awareness. Not to be used for flight planning purposes.